Flight Track Log - Related Links

Times and Time Zones

All times are in EDT time to prevent confusion due to time zone crossing. See the DAL1095 flight status page for this flight to view local times or setup timezone preferences in your user account.

Time Position Orientation Groundspeed Altitude Reporting Facility
EDT Latitude Longitude Course Direction KTS MPH feet Rate Location/Type
01:49PM 35.1911 -80.9508 239° Southwest 163 188 1,700  Level Atlanta Center
01:50PM 35.1433 -80.9528 182° South 207 238 2,900 2,018 Climbing Atlanta Center
01:51PM 35.0925 -81.0053 220° Southwest 294 338 5,400 2,716 Climbing Atlanta Center
01:52PM 35.2643 -81.2221 242° Southwest  Level FlightAware Approximate
01:52PM 35.1000 -81.1472 274° West 295 339 9,600  Level Atlanta Center
01:53PM 35.2105 -81.3458 239° Southwest  Level FlightAware Approximate
01:53PM 35.1067 -81.2561 274° West 310 357 11,500  Level Atlanta Center
01:54PM 35.1507 -81.4653 239° Southwest  Level FlightAware Approximate
01:54PM 35.1139 -81.3881 274° West 359 413 12,900  Level Atlanta Center
01:55PM 35.1189 -81.5325 272° West 412 474 15,200 2,100 Climbing Atlanta Center
01:56PM 35.0864 -81.6808 255° West 434 499 17,100 1,650 Climbing Atlanta Center
01:57PM 35.0533 -81.8136 253° West 459 528 18,500 1,700 Climbing Atlanta Center
01:58PM 35.0183 -81.9642 254° West 464 534 20,500 1,900 Climbing Atlanta Center
01:59PM 34.9814 -82.1247 254° West 479 551 22,300 1,500 Climbing Atlanta Center
02:00PM 34.9442 -82.2778 254° West 478 550 23,500 1,350 Climbing Atlanta Center
02:01PM 34.9067 -82.4406 254° West 489 563 25,000 1,250 Climbing Atlanta Center
02:02PM 34.8669 -82.6033 253° West 499 574 26,000 500 Climbing Atlanta Center
02:03PM 34.8269 -82.7558 252° West 494 568 26,000  Level Atlanta Center
02:04PM 34.7928 -82.8956 253° West 466 536 26,000 -250 Level Atlanta Center
02:05PM 34.7186 -83.0153 233° Southwest 432 497 25,500 -655 Descending Atlanta Center
02:06PM 34.6381 -83.1197 227° Southwest 439 505 24,700 -800 Descending Atlanta Center
02:07PM 34.5514 -83.2392 229° Southwest 439 505 23,900 -900 Descending Atlanta Center
02:08PM 34.4747 -83.3433 228° Southwest 425 489 22,900 -1,000 Descending Atlanta Center
02:09PM 34.3961 -83.4447 227° Southwest 416 479 21,900 -1,150 Descending Atlanta Center
02:10PM 34.3172 -83.5458 227° Southwest 416 479 20,600 -1,700 Descending Atlanta Center
02:11PM 34.2444 -83.6417 227° Southwest 407 468 18,500 -1,950 Descending Atlanta Center
02:12PM 34.1717 -83.7325 226° Southwest 386 444 16,700 -2,150 Descending Atlanta Center
02:13PM 34.0967 -83.8306 227° Southwest 386 444 14,200 -1,350 Descending Atlanta Center
02:14PM 34.0217 -83.9161 223° Southwest 386 444 14,000 -595 Descending Atlanta Center
02:15PM 33.9667 -84.0000 232° Southwest 374 430 13,100 -1,081 Descending Atlanta TRACON
02:16PM 33.9000 -84.0833 226° Southwest 367 422 12,000 -500 Descending Atlanta TRACON
02:17PM 33.8333 -84.1833 231° Southwest 307 353 12,100  Climbing Atlanta TRACON
02:18PM 33.7833 -84.2667 234° Southwest 270 311 12,000 -190 Descending Atlanta TRACON
02:19PM 33.7500 -84.3333 239° Southwest 255 293 11,700 -900 Descending Atlanta TRACON
02:20PM 33.7333 -84.4000 253° West 263 303 10,200 -1,450 Descending Atlanta TRACON
02:21PM 33.7333 -84.4833 270° West 254 292 8,800 -1,600 Descending Atlanta TRACON
02:22PM 33.7333 -84.5667 270° West 244 281 7,000 -1,737 Descending Atlanta TRACON
02:23PM 33.7333 -84.6500 270° West 244 281 5,500 -1,550 Descending Atlanta TRACON
02:24PM 33.7167 -84.7167 253° West 241 277 3,900 -714 Descending Atlanta TRACON
02:25PM 33.6667 -84.6833 151° Southeast 219 252 4,000 -50 Climbing Atlanta TRACON
02:26PM 33.6500 -84.6167 107° East 183 211 3,800 -200 Descending Atlanta TRACON

Login

Don't have an account? Register now (free) for customized features, flight alerts, and more!